createdAt,value
2019-01-27T00:02:23.434Z,3.20
2019-01-27T00:04:54.217Z,3.20
2019-01-27T00:07:25.076Z,3.20
2019-01-27T00:09:55.790Z,3.20
2019-01-27T00:12:26.433Z,3.20
2019-01-27T00:14:56.922Z,3.20
2019-01-27T00:17:27.745Z,3.20
2019-01-27T00:19:58.402Z,3.20
2019-01-27T00:22:29.151Z,3.30
2019-01-27T00:24:59.846Z,3.20
2019-01-27T00:27:30.678Z,3.20
2019-01-27T00:30:01.329Z,3.30
2019-01-27T00:32:33.071Z,3.20
2019-01-27T00:35:04.097Z,3.20
2019-01-27T00:37:34.957Z,3.30
2019-01-27T00:40:06.094Z,3.30
2019-01-27T00:42:36.928Z,3.30
2019-01-27T00:45:09.277Z,3.30
2019-01-27T00:47:40.202Z,3.30
2019-01-27T00:50:12.281Z,3.30
2019-01-27T00:52:43.125Z,3.30
2019-01-27T00:55:16.411Z,3.40
2019-01-27T00:57:47.232Z,3.40
2019-01-27T01:00:20.162Z,3.40
2019-01-27T01:02:50.864Z,3.40
2019-01-27T01:05:21.496Z,3.40
2019-01-27T01:07:52.216Z,3.40
2019-01-27T01:10:22.645Z,3.50
2019-01-27T01:12:53.322Z,3.40
2019-01-27T01:15:24.321Z,3.50
2019-01-27T01:17:55.144Z,3.50
2019-01-27T01:20:25.813Z,3.50
2019-01-27T01:22:56.616Z,3.50
2019-01-27T01:25:27.381Z,3.50
2019-01-27T01:27:58.177Z,3.50
2019-01-27T01:30:29.537Z,3.50
2019-01-27T01:33:00.364Z,3.60
2019-01-27T01:35:31.063Z,3.60
2019-01-27T01:38:01.942Z,3.60
2019-01-27T01:40:32.698Z,3.60
2019-01-27T01:43:03.500Z,3.60
2019-01-27T01:45:34.452Z,3.60
2019-01-27T01:48:05.606Z,3.60
2019-01-27T01:50:36.245Z,3.60
2019-01-27T01:53:07.040Z,3.60
2019-01-27T01:55:37.643Z,3.60
2019-01-27T01:58:08.532Z,3.60
2019-01-27T02:00:39.295Z,3.60
2019-01-27T02:03:10.091Z,3.60
2019-01-27T02:05:40.789Z,3.60
2019-01-27T02:08:11.572Z,3.60
2019-01-27T02:10:42.314Z,3.60
2019-01-27T02:13:12.994Z,3.60
2019-01-27T02:16:09.375Z,3.60
2019-01-27T02:18:40.877Z,3.60
2019-01-27T02:21:11.667Z,3.60
2019-01-27T02:23:42.464Z,3.60
2019-01-27T02:26:13.266Z,3.60
2019-01-27T02:28:44.014Z,3.60
2019-01-27T02:31:14.801Z,3.60
2019-01-27T02:33:45.585Z,3.60
2019-01-27T02:36:16.277Z,3.50
2019-01-27T02:38:47.080Z,3.50
2019-01-27T02:41:17.658Z,3.50
2019-01-27T02:43:48.412Z,3.50
2019-01-27T02:46:19.090Z,3.50
2019-01-27T02:48:49.919Z,3.40
2019-01-27T02:51:20.806Z,3.40
2019-01-27T02:53:51.573Z,3.40
2019-01-27T02:56:22.273Z,3.50
2019-01-27T02:58:53.159Z,3.40
2019-01-27T03:01:23.906Z,3.40
2019-01-27T03:03:54.773Z,3.40
2019-01-27T03:06:47.306Z,3.40
2019-01-27T03:09:24.859Z,3.40
2019-01-27T03:11:55.721Z,3.40
2019-01-27T03:14:26.497Z,3.40
2019-01-27T03:16:57.192Z,3.40
2019-01-27T03:19:27.994Z,3.40
2019-01-27T03:21:58.747Z,3.40
2019-01-27T03:24:29.656Z,3.40
2019-01-27T03:27:00.326Z,3.40
2019-01-27T03:29:31.285Z,3.40
2019-01-27T03:32:01.978Z,3.40
2019-01-27T03:34:32.804Z,3.40
2019-01-27T03:37:03.665Z,3.40
2019-01-27T03:39:34.389Z,3.40
2019-01-27T03:42:05.333Z,3.30
2019-01-27T03:44:36.146Z,3.30
2019-01-27T03:47:08.042Z,3.40
2019-01-27T03:49:38.905Z,3.40
2019-01-27T03:52:09.729Z,3.30
2019-01-27T03:54:40.339Z,3.30
2019-01-27T03:57:11.175Z,3.30
2019-01-27T03:59:42.997Z,3.30
2019-01-27T04:02:13.666Z,3.30
2019-01-27T04:04:44.392Z,3.30
2019-01-27T04:07:15.225Z,3.30
2019-01-27T04:09:45.922Z,3.30
2019-01-27T04:12:16.605Z,3.30
2019-01-27T04:14:47.396Z,3.30
2019-01-27T04:17:18.402Z,3.30
2019-01-27T04:19:49.164Z,3.30
2019-01-27T04:22:19.801Z,3.30
2019-01-27T04:24:50.409Z,3.30
2019-01-27T04:27:21.195Z,3.30
2019-01-27T04:29:52.153Z,3.30
2019-01-27T04:32:22.843Z,3.30
2019-01-27T04:34:53.712Z,3.30
2019-01-27T04:37:24.658Z,3.30
2019-01-27T04:39:55.537Z,3.30
2019-01-27T04:42:26.405Z,3.30
2019-01-27T04:44:57.233Z,3.30
2019-01-27T04:47:27.975Z,3.30
2019-01-27T04:49:58.811Z,3.30
2019-01-27T04:52:29.526Z,3.30
2019-01-27T04:55:00.333Z,3.30
2019-01-27T04:57:31.090Z,3.40
2019-01-27T05:00:01.910Z,3.30
2019-01-27T05:02:38.877Z,3.40
2019-01-27T05:05:10.135Z,3.30
2019-01-27T05:07:40.708Z,3.40
2019-01-27T05:10:11.402Z,3.40
2019-01-27T05:12:42.049Z,3.30
2019-01-27T05:15:14.126Z,3.40
2019-01-27T05:17:44.838Z,3.40
2019-01-27T05:20:15.776Z,3.40
2019-01-27T05:22:47.567Z,3.40
2019-01-27T05:25:18.338Z,3.40
2019-01-27T05:27:49.003Z,3.40
2019-01-27T05:30:20.340Z,3.40
2019-01-27T05:32:51.101Z,3.40
2019-01-27T05:35:21.938Z,3.40
2019-01-27T05:37:52.680Z,3.40
2019-01-27T05:40:23.574Z,3.40
2019-01-27T05:45:24.425Z,3.40
2019-01-27T05:47:55.198Z,3.30
2019-01-27T05:50:26.124Z,3.30
2019-01-27T05:52:56.759Z,3.30
2019-01-27T05:55:27.552Z,3.30
2019-01-27T05:57:58.246Z,3.40
2019-01-27T06:00:38.769Z,3.40
2019-01-27T06:03:09.525Z,3.40
2019-01-27T06:05:40.302Z,3.40
2019-01-27T06:08:11.003Z,3.40
2019-01-27T06:10:41.836Z,3.40
2019-01-27T06:13:12.582Z,3.40
2019-01-27T06:15:43.409Z,3.40
2019-01-27T06:18:14.156Z,3.40
2019-01-27T06:20:45.031Z,3.40
2019-01-27T06:23:15.715Z,3.40
2019-01-27T06:25:46.411Z,3.40
2019-01-27T06:28:21.907Z,3.40
2019-01-27T06:30:54.247Z,3.40
2019-01-27T06:33:54.613Z,3.40
2019-01-27T06:36:28.384Z,3.40
2019-01-27T06:39:01.939Z,3.40
2019-01-27T06:41:35.677Z,3.40
2019-01-27T06:44:07.327Z,3.40
2019-01-27T06:46:39.884Z,3.40
2019-01-27T06:49:10.722Z,3.40
2019-01-27T06:51:42.590Z,3.40
2019-01-27T06:54:13.438Z,3.40
2019-01-27T06:56:44.645Z,3.30
2019-01-27T06:59:43.453Z,3.40
2019-01-27T07:02:35.996Z,3.40
2019-01-27T07:05:30.590Z,3.30
2019-01-27T07:08:06.543Z,3.40
2019-01-27T07:10:59.089Z,3.30
2019-01-27T07:13:39.388Z,3.40
2019-01-27T07:16:19.388Z,3.40
2019-01-27T07:19:12.257Z,3.40
2019-01-27T07:22:02.027Z,3.40
2019-01-27T07:24:45.459Z,3.40
2019-01-27T07:27:35.238Z,3.30
2019-01-27T07:30:32.492Z,3.40
2019-01-27T07:33:31.077Z,3.30
2019-01-27T07:36:19.731Z,3.40
2019-01-27T07:39:18.624Z,3.40
2019-01-27T07:42:08.403Z,3.40
2019-01-27T07:44:44.562Z,3.40
2019-01-27T07:47:32.400Z,3.40
2019-01-27T07:50:11.118Z,3.40
2019-01-27T07:53:00.999Z,3.40
2019-01-27T07:55:46.990Z,3.40
2019-01-27T07:58:42.402Z,3.40
2019-01-27T08:01:47.461Z,3.40
2019-01-27T08:04:40.291Z,3.40
2019-01-27T08:07:34.168Z,3.40
2019-01-27T08:10:17.494Z,3.40
2019-01-27T08:13:05.327Z,3.40
2019-01-27T08:15:53.674Z,3.30
2019-01-27T08:18:46.130Z,3.40
2019-01-27T08:21:24.733Z,3.40
2019-01-27T08:24:26.596Z,3.40
2019-01-27T08:27:22.316Z,3.50
2019-01-27T08:30:15.143Z,3.50
2019-01-27T08:32:57.164Z,3.50
2019-01-27T08:35:50.035Z,3.50
2019-01-27T08:38:58.534Z,3.50
2019-01-27T08:41:44.935Z,3.50
2019-01-27T08:44:29.593Z,3.50
2019-01-27T08:47:02.182Z,3.60
2019-01-27T08:49:33.370Z,3.50
2019-01-27T08:52:04.120Z,3.60
2019-01-27T08:54:34.706Z,3.60
2019-01-27T08:57:05.583Z,3.60
2019-01-27T08:59:36.374Z,3.60
2019-01-27T09:02:32.271Z,3.60
2019-01-27T09:05:10.768Z,3.60
2019-01-27T09:08:12.957Z,3.70
2019-01-27T09:11:21.281Z,3.70
2019-01-27T09:14:20.060Z,3.80
2019-01-27T09:17:18.852Z,3.80
2019-01-27T09:20:09.553Z,3.90
2019-01-27T09:23:02.302Z,3.90
2019-01-27T09:25:43.172Z,3.90
2019-01-27T09:28:21.483Z,3.90
2019-01-27T09:31:11.261Z,4.00
2019-01-27T09:33:59.817Z,4.00
2019-01-27T09:36:53.897Z,4.00
2019-01-27T09:39:46.642Z,4.10
2019-01-27T09:42:39.289Z,4.10
2019-01-27T09:45:34.291Z,4.10
2019-01-27T09:48:23.250Z,4.20
2019-01-27T09:51:13.032Z,4.10
2019-01-27T09:53:50.829Z,4.10
2019-01-27T09:56:49.619Z,4.20
2019-01-27T09:59:38.067Z,4.20
2019-01-27T10:02:21.396Z,4.20
2019-01-27T10:05:11.184Z,4.20
2019-01-27T10:08:00.956Z,4.30
2019-01-27T10:10:50.736Z,4.40
2019-01-27T10:13:35.190Z,4.50
2019-01-27T10:16:35.312Z,4.50
2019-01-27T10:19:21.302Z,4.60
2019-01-27T10:22:08.523Z,4.70
2019-01-27T10:24:57.175Z,4.90
2019-01-27T10:27:55.659Z,5.00
2019-01-27T10:30:55.220Z,5.20
2019-01-27T10:33:38.903Z,5.20
2019-01-27T10:36:33.495Z,5.30
2019-01-27T10:39:28.088Z,5.30
2019-01-27T10:42:08.652Z,5.30
2019-01-27T10:45:03.963Z,5.30
2019-01-27T10:47:47.288Z,5.20
2019-01-27T10:50:30.106Z,5.20
2019-01-27T10:53:34.941Z,5.10
2019-01-27T10:56:20.828Z,5.10
2019-01-27T10:59:10.504Z,5.20
2019-01-27T11:02:18.817Z,5.20
2019-01-27T11:05:17.197Z,5.20
2019-01-27T11:08:16.112Z,5.20
2019-01-27T11:11:03.419Z,5.20
2019-01-27T11:13:59.234Z,5.20
2019-01-27T11:16:52.905Z,5.20
2019-01-27T11:19:42.699Z,5.30
2019-01-27T11:22:30.723Z,5.30
2019-01-27T11:25:10.364Z,5.30
2019-01-27T11:28:08.848Z,5.30
2019-01-27T11:30:57.604Z,5.30
2019-01-27T11:34:05.611Z,5.40
2019-01-27T11:36:58.058Z,5.40
2019-01-27T11:39:56.434Z,5.50
2019-01-27T11:42:55.431Z,5.50
2019-01-27T11:45:47.974Z,5.50
2019-01-27T11:48:50.245Z,5.50
2019-01-27T11:51:39.824Z,5.60
2019-01-27T11:54:12.265Z,5.80
2019-01-27T11:56:42.979Z,5.80
2019-01-27T11:59:13.685Z,5.80
2019-01-27T12:01:44.504Z,5.70
2019-01-27T12:04:15.230Z,5.70
2019-01-27T12:06:46.049Z,5.70
2019-01-27T12:09:16.722Z,5.60
2019-01-27T12:11:48.693Z,5.60
2019-01-27T12:14:19.416Z,5.60
2019-01-27T12:16:51.300Z,5.60
2019-01-27T12:19:21.980Z,5.60
2019-01-27T12:21:52.972Z,5.50
2019-01-27T12:24:25.245Z,5.50
2019-01-27T12:26:56.277Z,5.50
2019-01-27T12:29:27.179Z,5.40
2019-01-27T12:31:58.049Z,5.40
2019-01-27T12:34:29.840Z,5.40
2019-01-27T12:37:00.821Z,5.40
2019-01-27T12:39:31.637Z,5.40
2019-01-27T12:42:02.518Z,5.30
2019-01-27T12:44:33.394Z,5.30
2019-01-27T12:47:04.401Z,5.30
2019-01-27T12:49:35.193Z,5.30
2019-01-27T12:52:06.164Z,5.30
2019-01-27T12:54:37.050Z,5.30
2019-01-27T12:57:07.933Z,5.30
2019-01-27T12:59:38.629Z,5.30
2019-01-27T13:02:09.461Z,5.30
2019-01-27T13:04:40.378Z,5.30
2019-01-27T13:07:11.211Z,5.20
2019-01-27T13:09:42.099Z,5.30
2019-01-27T13:12:12.889Z,5.20
2019-01-27T13:14:43.821Z,5.20
2019-01-27T13:17:14.193Z,5.20
2019-01-27T13:19:45.111Z,5.20
2019-01-27T13:22:15.703Z,5.20
2019-01-27T13:24:47.692Z,5.20
2019-01-27T13:27:18.318Z,5.20
2019-01-27T13:29:49.157Z,5.30
2019-01-27T13:32:20.052Z,5.30
2019-01-27T13:34:50.951Z,5.30
2019-01-27T13:37:21.913Z,5.30
2019-01-27T13:39:52.622Z,5.40
2019-01-27T13:42:23.442Z,5.30
2019-01-27T13:44:54.223Z,5.40
2019-01-27T13:47:24.877Z,5.30
2019-01-27T13:49:55.571Z,5.30
2019-01-27T13:52:26.379Z,5.30
2019-01-27T13:54:57.165Z,5.30
2019-01-27T13:57:27.941Z,5.30
2019-01-27T13:59:58.973Z,5.20
2019-01-27T14:02:29.865Z,5.20
2019-01-27T14:05:00.840Z,5.20
2019-01-27T14:07:31.850Z,5.20
2019-01-27T14:10:02.776Z,5.20
2019-01-27T14:12:34.817Z,5.20
2019-01-27T14:15:12.446Z,5.20
2019-01-27T14:17:38.705Z,5.20
2019-01-27T14:20:11.353Z,5.20
2019-01-27T14:22:42.364Z,5.20
2019-01-27T14:25:14.285Z,5.20
2019-01-27T14:27:45.185Z,5.20
2019-01-27T14:30:18.162Z,5.20
2019-01-27T14:32:50.794Z,5.20
2019-01-27T14:35:21.629Z,5.20
2019-01-27T14:37:52.338Z,5.20
2019-01-27T14:40:24.808Z,5.20
2019-01-27T14:42:55.728Z,5.20
2019-01-27T14:45:27.909Z,5.10
2019-01-27T14:47:58.816Z,5.10
2019-01-27T14:50:35.341Z,5.10
2019-01-27T14:53:06.733Z,5.10
2019-01-27T14:55:37.661Z,5.10
2019-01-27T14:58:08.262Z,4.90
2019-01-27T15:00:40.837Z,4.90
2019-01-27T15:03:12.422Z,4.90
2019-01-27T15:05:43.185Z,5.00
2019-01-27T15:08:14.125Z,5.00
2019-01-27T15:10:45.653Z,4.90
2019-01-27T15:13:16.697Z,4.90
2019-01-27T15:15:47.453Z,4.90
2019-01-27T15:18:19.796Z,5.00
2019-01-27T15:21:09.365Z,5.00
2019-01-27T15:23:40.044Z,5.00
2019-01-27T15:26:10.936Z,4.90
2019-01-27T15:28:41.714Z,4.90
2019-01-27T15:31:12.433Z,4.90
2019-01-27T15:33:43.282Z,4.90
2019-01-27T15:36:14.003Z,4.90
2019-01-27T15:38:45.669Z,4.90
2019-01-27T15:41:16.461Z,4.90
2019-01-27T15:43:48.662Z,4.90
2019-01-27T15:46:19.768Z,4.90
2019-01-27T15:48:50.462Z,4.90
2019-01-27T15:51:21.236Z,4.90
2019-01-27T15:53:51.993Z,4.90
2019-01-27T15:56:22.782Z,4.90
2019-01-27T15:58:53.500Z,4.90
2019-01-27T16:01:24.274Z,4.90
2019-01-27T16:03:55.173Z,4.90
2019-01-27T16:06:25.852Z,4.80
2019-01-27T16:08:56.713Z,4.80
2019-01-27T16:11:27.415Z,4.90
2019-01-27T16:13:58.277Z,4.80
2019-01-27T16:16:29.133Z,4.80
2019-01-27T16:18:59.993Z,4.80
2019-01-27T16:21:30.768Z,4.80
2019-01-27T16:24:03.771Z,4.70
2019-01-27T16:26:34.475Z,4.70
2019-01-27T16:29:05.308Z,4.70
2019-01-27T16:31:46.152Z,4.70
2019-01-27T16:34:36.064Z,4.70
2019-01-27T16:37:06.649Z,4.70
2019-01-27T16:39:37.346Z,4.70
2019-01-27T16:42:07.962Z,4.70
2019-01-27T16:44:38.670Z,4.70
2019-01-27T16:47:09.366Z,4.70
2019-01-27T16:49:40.001Z,4.70
2019-01-27T16:52:10.773Z,4.70
2019-01-27T16:54:41.677Z,4.70
2019-01-27T16:57:12.349Z,4.70
2019-01-27T16:59:43.801Z,4.60
2019-01-27T17:02:14.425Z,4.60
2019-01-27T17:04:45.243Z,4.60
2019-01-27T17:07:16.077Z,4.60
2019-01-27T17:09:46.937Z,4.60
2019-01-27T17:12:17.678Z,4.60
2019-01-27T17:14:48.593Z,4.60
2019-01-27T17:17:19.450Z,4.60
2019-01-27T17:19:50.164Z,4.60
2019-01-27T17:22:21.050Z,4.60
2019-01-27T17:24:51.831Z,4.60
2019-01-27T17:27:22.578Z,4.50
2019-01-27T17:29:53.378Z,4.50
2019-01-27T17:32:23.972Z,4.50
2019-01-27T17:34:54.843Z,4.40
2019-01-27T17:37:25.508Z,4.40
2019-01-27T17:39:56.438Z,4.40
2019-01-27T17:42:27.081Z,4.40
2019-01-27T17:44:57.942Z,4.40
2019-01-27T17:47:28.561Z,4.30
2019-01-27T17:50:01.240Z,4.20
2019-01-27T17:52:33.181Z,4.20
2019-01-27T17:55:04.116Z,4.20
2019-01-27T17:57:53.781Z,4.30
2019-01-27T18:00:55.144Z,4.30
2019-01-27T18:03:57.913Z,4.30
2019-01-27T18:06:33.946Z,4.30
2019-01-27T18:09:12.182Z,4.30
2019-01-27T18:11:52.958Z,4.30
2019-01-27T18:14:56.786Z,4.40
2019-01-27T18:17:27.576Z,4.40
2019-01-27T18:19:58.366Z,4.40
2019-01-27T18:22:29.305Z,4.40
2019-01-27T18:25:00.267Z,4.40
2019-01-27T18:27:31.123Z,4.40
2019-01-27T18:30:01.922Z,4.40
2019-01-27T18:32:32.703Z,4.40
2019-01-27T18:35:03.365Z,4.40
2019-01-27T18:37:34.251Z,4.40
2019-01-27T18:40:05.180Z,4.40
2019-01-27T18:42:37.196Z,4.30
2019-01-27T18:45:09.574Z,4.40
2019-01-27T18:47:40.249Z,4.40
2019-01-27T18:50:12.697Z,4.30
2019-01-27T18:52:43.562Z,4.40
2019-01-27T18:55:33.165Z,4.30
2019-01-27T18:58:11.171Z,4.40
2019-01-27T19:00:50.094Z,4.30
2019-01-27T19:03:26.664Z,4.30
2019-01-27T19:06:05.386Z,4.30
2019-01-27T19:08:54.570Z,4.30
2019-01-27T19:11:56.618Z,4.30
2019-01-27T19:14:58.479Z,4.30
2019-01-27T19:17:55.326Z,4.20
2019-01-27T19:20:45.104Z,4.20
2019-01-27T19:23:26.594Z,4.20
2019-01-27T19:26:19.033Z,4.20
2019-01-27T19:29:14.853Z,4.10
2019-01-27T19:32:06.787Z,4.10
2019-01-27T19:35:15.200Z,4.10
2019-01-27T19:37:55.866Z,4.10
2019-01-27T19:40:44.314Z,4.10
2019-01-27T19:43:34.101Z,4.00
2019-01-27T19:46:19.780Z,4.10
2019-01-27T19:49:12.629Z,4.10
2019-01-27T19:52:01.896Z,4.00
2019-01-27T19:54:47.785Z,3.90
2019-01-27T19:57:46.579Z,4.00
2019-01-27T20:00:23.556Z,3.90
2019-01-27T20:03:13.335Z,4.00
2019-01-27T20:06:03.115Z,4.00
2019-01-27T20:08:41.220Z,4.00
2019-01-27T20:11:24.503Z,4.00
2019-01-27T20:14:10.335Z,4.00
2019-01-27T20:16:55.814Z,4.00
2019-01-27T20:19:37.297Z,4.00
2019-01-27T20:22:27.091Z,4.00
2019-01-27T20:25:12.761Z,4.00
2019-01-27T20:28:11.450Z,3.90
2019-01-27T20:31:13.312Z,3.90
2019-01-27T20:34:02.069Z,4.00
2019-01-27T20:36:40.582Z,4.00
2019-01-27T20:39:26.573Z,4.00
2019-01-27T20:42:05.806Z,4.00
2019-01-27T20:44:58.658Z,4.00
2019-01-27T20:47:48.438Z,3.90
2019-01-27T20:50:27.362Z,3.90
2019-01-27T20:53:21.647Z,3.90
2019-01-27T20:56:17.575Z,3.90
2019-01-27T20:58:57.009Z,4.00
2019-01-27T21:01:55.799Z,3.90
2019-01-27T21:04:45.680Z,3.90
2019-01-27T21:07:30.445Z,3.90
2019-01-27T21:10:26.263Z,3.90
2019-01-27T21:13:08.671Z,3.90
2019-01-27T21:15:50.770Z,3.90
2019-01-27T21:18:29.342Z,3.90
2019-01-27T21:21:00.366Z,3.90
2019-01-27T21:23:31.002Z,3.80
2019-01-27T21:26:01.756Z,3.80
2019-01-27T21:28:32.625Z,3.80
2019-01-27T21:31:03.336Z,3.80
2019-01-27T21:33:33.997Z,3.80
2019-01-27T21:36:04.952Z,3.80
2019-01-27T21:38:35.629Z,3.80
2019-01-27T21:41:06.633Z,3.80
2019-01-27T21:43:37.388Z,3.80
2019-01-27T21:46:08.237Z,3.80
2019-01-27T21:48:38.925Z,3.80
2019-01-27T21:51:09.965Z,3.80
2019-01-27T21:53:40.857Z,3.80
2019-01-27T21:56:11.584Z,3.80
2019-01-27T21:58:43.405Z,3.80
2019-01-27T22:01:14.170Z,3.80
2019-01-27T22:03:44.914Z,3.90
2019-01-27T22:06:15.656Z,3.90
2019-01-27T22:08:46.220Z,3.90
2019-01-27T22:11:17.046Z,3.90
2019-01-27T22:13:47.829Z,3.90
2019-01-27T22:16:18.582Z,3.90
2019-01-27T22:18:49.366Z,4.00
2019-01-27T22:21:20.351Z,3.90
2019-01-27T22:23:51.065Z,4.00
2019-01-27T22:26:21.846Z,4.00
2019-01-27T22:28:52.504Z,4.00
2019-01-27T22:31:23.304Z,3.90
2019-01-27T22:33:54.246Z,4.00
2019-01-27T22:36:24.984Z,3.90
2019-01-27T22:38:55.747Z,4.00
2019-01-27T22:41:26.521Z,4.00
2019-01-27T22:43:57.208Z,4.00
2019-01-27T22:46:27.889Z,4.00
2019-01-27T22:48:58.569Z,4.00
2019-01-27T22:51:29.387Z,4.00
2019-01-27T22:54:00.170Z,4.00
2019-01-27T22:56:30.913Z,4.00
2019-01-27T22:59:01.706Z,4.00
2019-01-27T23:01:32.549Z,4.00
2019-01-27T23:04:03.358Z,4.00
2019-01-27T23:06:34.290Z,4.00
2019-01-27T23:09:08.608Z,4.00
2019-01-27T23:11:39.449Z,4.00
2019-01-27T23:14:10.232Z,4.00
2019-01-27T23:16:40.976Z,4.00
2019-01-27T23:19:11.669Z,4.00
2019-01-27T23:21:42.426Z,4.00
2019-01-27T23:24:13.134Z,4.00
2019-01-27T23:26:43.920Z,4.00
2019-01-27T23:29:14.643Z,4.00
2019-01-27T23:31:45.086Z,4.00
2019-01-27T23:34:15.896Z,4.00
2019-01-27T23:36:46.571Z,4.00
2019-01-27T23:39:17.353Z,4.00
2019-01-27T23:41:47.953Z,4.00
2019-01-27T23:44:18.737Z,4.00
2019-01-27T23:46:49.412Z,4.00
2019-01-27T23:49:20.105Z,4.10
2019-01-27T23:51:50.781Z,4.00
2019-01-27T23:54:21.600Z,4.10
2019-01-27T23:56:52.295Z,4.10
2019-01-27T23:59:23.067Z,4.00
